02:41:14 Salzburg Marathon Rennen
Ort Salzburg Datum 01.05.2016 09:00:05
Kategorie Strasse
Distanz 42,20 Kilometer Steigung 69,0 Meter Gefälle -70,0 Meter
Gesamt Zeit 02:41:16 Aktiv 02:38:31 Pause 00:02:45
Durchs. Tempo 00:03:49 min/km Tempo max. 00:02:41 min/km Tempo min. 00:06:10 min/km
Kalorien 0 Durchs. HF 165 BPM HF max. 176 BPM
Wetter 12 °C ChanceRain Min/Max: 10,8 °C/12,0 °C; Druck: 1015,5 mbar; Rel. Feuchte: 71,9%; Taupunkt: 6,5 °C; Windgeschwindigkeit: 1,6 km/h; Niederschlag: 0,0mm
Ausrüstung New Balance - 1500 v2 - 2
Sigvaris - Sleeves & Socks
Notiz Salzburg Marathon, Österreichische und Tiroler Meisterschaften 2016 ... tw. Nieselregen, wenig Wind ... Österreichische Meisterschaften 12. Platz gesamt, 5. Platz AK M40, 9. Platz Mannschaft SK Rueckenwind ... Tiroler Meisterschaften 2. Platz gesamt, 1. Platz AK M40, 2. Platz Mannschaft SK Rueckenwind ... garmin connect
Splits
Distanz (km) Gesamt Zeit Split Zeit Split Tempo Split Tempo Höhenprofil (m)
1,00 00:03:38 00:03:38 00:03:38 16,5 -1,34
2,00 00:07:23 00:03:44 00:03:45 16,0 1,84
3,00 00:11:10 00:03:47 00:03:47 15,9 3,19
4,00 00:14:55 00:03:45 00:03:46 16,0 2,37
5,00 00:18:38 00:03:42 00:03:43 16,2 2,03
6,00 00:22:25 00:03:47 00:03:47 15,8 5,12
7,00 00:26:16 00:03:51 00:03:51 15,6 11,18
8,00 00:29:56 00:03:39 00:03:39 16,4 -10,01
9,00 00:33:45 00:03:49 00:03:49 15,7 -4,27
10,00 00:37:29 00:03:44 00:03:45 16,0 -2,25
11,00 00:41:20 00:03:50 00:03:50 15,6 4,21
12,00 00:45:07 00:03:47 00:03:47 15,8 -1,95
13,00 00:48:53 00:03:45 00:03:46 16,0 0,80
14,00 00:52:38 00:03:45 00:03:46 16,0 -4,24
15,00 00:56:22 00:03:43 00:03:43 16,1 0,32
16,00 01:00:03 00:03:41 00:03:41 16,3 0,05
17,00 01:03:53 00:03:50 00:03:50 15,6 11,77
18,00 01:07:31 00:03:38 00:03:38 16,5 -19,89
19,00 01:11:18 00:03:47 00:03:47 15,8 0,59
20,00 01:15:04 00:03:45 00:03:45 16,0 5,91
21,00 01:18:52 00:03:48 00:03:49 15,8 4,93
22,00 01:22:33 00:03:40 00:03:41 16,3 -8,84
23,00 01:26:23 00:03:49 00:03:50 15,7 1,50
24,00 01:30:13 00:03:50 00:03:50 15,6 -3,14
25,00 01:34:03 00:03:49 00:03:49 15,7 7,64
26,00 01:37:51 00:03:48 00:03:48 15,8 -0,72
27,00 01:41:47 00:03:55 00:03:56 15,3 7,32
28,00 01:45:33 00:03:46 00:03:46 15,9 12,26
29,00 01:49:18 00:03:45 00:03:45 16,0 -6,75
30,00 01:53:09 00:03:50 00:03:51 15,6 -4,92
31,00 01:56:57 00:03:47 00:03:48 15,8 -8,01
32,00 02:00:54 00:03:56 00:03:57 15,2 5,57
33,00 02:04:49 00:03:55 00:03:55 15,3 0,24
34,00 02:08:37 00:03:48 00:03:48 15,8 -1,84
35,00 02:12:31 00:03:53 00:03:54 15,4 -3,65
36,00 02:16:24 00:03:53 00:03:53 15,4 0,28
37,00 02:20:13 00:03:49 00:03:49 15,7 -1,79
38,00 02:24:07 00:03:53 00:03:53 15,4 2,40
39,00 02:28:06 00:03:58 00:03:59 15,1 -4,33
40,00 02:31:42 00:03:35 00:03:36 16,7 -8,18
41,00 02:35:43 00:04:01 00:04:02 14,9 11,80
42,00 02:39:37 00:03:54 00:03:54 15,4 1,77
42,43 02:41:16 00:01:38 00:03:48 15,8 1,78